createdAt,value
2023-03-23T15:58:54.703Z,2.50
2023-03-23T16:01:28.262Z,2.30
2023-03-23T16:04:16.771Z,2.80
2023-03-23T16:06:45.811Z,2.60
2023-03-23T16:09:20.759Z,2.70
2023-03-23T16:11:49.051Z,3.10
2023-03-23T16:14:17.090Z,4.90
2023-03-23T16:16:50.773Z,6.20
2023-03-23T16:19:24.320Z,3.60
2023-03-23T16:21:52.643Z,3.10
2023-03-23T16:24:20.790Z,3.30
2023-03-23T16:26:49.347Z,3.20
2023-03-23T16:29:33.854Z,2.00
2023-03-23T16:32:07.010Z,1.30
2023-03-23T16:34:35.857Z,1.30
2023-03-23T16:37:04.001Z,0.80
2023-03-23T16:39:32.298Z,0.70
2023-03-23T16:42:00.470Z,1.10
2023-03-23T16:44:29.629Z,1.00
2023-03-23T16:46:57.652Z,0.90
2023-03-23T16:49:25.921Z,0.90
2023-03-23T16:51:54.234Z,1.20
2023-03-23T16:54:22.910Z,1.20
2023-03-23T16:56:50.955Z,1.70
2023-03-23T16:59:19.138Z,2.20
2023-03-23T17:01:47.327Z,2.40
2023-03-23T17:04:16.046Z,2.90
2023-03-23T17:06:44.563Z,2.00
2023-03-23T17:09:12.667Z,2.00
2023-03-23T17:11:40.882Z,2.00
2023-03-23T17:14:08.930Z,1.90
2023-03-23T17:16:38.957Z,2.10
2023-03-23T17:19:07.703Z,2.20
2023-03-23T17:21:36.292Z,2.20
2023-03-23T17:24:04.545Z,2.20
2023-03-23T17:26:32.633Z,2.30
2023-03-23T17:29:00.790Z,1.60
2023-03-23T17:31:29.212Z,2.00
2023-03-23T17:33:57.988Z,1.40
2023-03-23T17:36:26.139Z,1.90
2023-03-23T17:38:54.572Z,1.90
2023-03-23T17:41:22.700Z,2.50
2023-03-23T17:43:50.924Z,2.20
2023-03-23T17:46:19.455Z,2.40
2023-03-23T17:48:47.660Z,2.50
2023-03-23T17:51:15.871Z,3.40
2023-03-23T17:53:43.941Z,2.70
2023-03-23T17:56:12.384Z,2.80
2023-03-23T17:58:41.263Z,2.70
2023-03-23T18:01:09.552Z,2.60
2023-03-23T18:03:37.655Z,3.10
2023-03-23T18:06:08.613Z,2.60
2023-03-23T18:08:37.650Z,3.50
2023-03-23T18:11:06.239Z,2.70
2023-03-23T18:13:36.626Z,3.10
2023-03-23T18:16:06.756Z,3.20
2023-03-23T18:18:35.035Z,3.90
2023-03-23T18:21:08.208Z,3.80
2023-03-23T18:23:45.972Z,5.10
2023-03-23T18:26:19.296Z,3.40
2023-03-23T18:28:48.257Z,3.10
2023-03-23T18:31:17.689Z,2.90
2023-03-23T18:33:48.236Z,2.60
2023-03-23T18:36:19.579Z,2.60
2023-03-23T18:38:48.522Z,3.20
2023-03-23T18:41:18.380Z,3.00
2023-03-23T18:43:46.806Z,3.10
2023-03-23T18:46:15.608Z,2.90
2023-03-23T18:48:44.031Z,3.30
2023-03-23T18:51:12.457Z,3.50
2023-03-23T18:53:41.107Z,3.60
2023-03-23T18:56:12.238Z,3.10
2023-03-23T18:58:40.452Z,3.40
2023-03-23T19:01:11.848Z,3.20
2023-03-23T19:03:40.705Z,2.90
2023-03-23T19:06:16.792Z,3.00
2023-03-23T19:08:45.974Z,3.20
2023-03-23T19:11:15.729Z,2.90
2023-03-23T19:13:58.031Z,3.30
2023-03-23T19:16:31.474Z,3.50
2023-03-23T19:19:01.926Z,2.90
2023-03-23T19:21:31.944Z,2.60
2023-03-23T19:24:01.696Z,2.70
2023-03-23T19:26:44.210Z,3.00
2023-03-23T19:31:46.415Z,3.20
2023-03-23T19:34:16.881Z,3.70
2023-03-23T19:36:53.796Z,3.60
2023-03-23T19:39:25.207Z,4.90
2023-03-23T19:41:53.534Z,4.00
2023-03-23T19:44:21.887Z,4.10
2023-03-23T19:46:50.710Z,4.40
2023-03-23T19:49:19.024Z,4.20
2023-03-23T19:51:47.107Z,4.10
2023-03-23T19:54:15.504Z,4.40
2023-03-23T19:56:44.021Z,4.50
2023-03-23T19:59:16.400Z,4.20
2023-03-23T20:01:45.400Z,5.20
2023-03-23T20:04:13.957Z,4.40
2023-03-23T20:06:42.044Z,4.00
2023-03-23T20:09:10.989Z,4.80
2023-03-23T20:11:39.159Z,4.50
2023-03-23T20:14:07.888Z,5.00
2023-03-23T20:16:36.895Z,4.60
2023-03-23T20:19:08.767Z,4.00
2023-03-23T20:21:37.659Z,4.90
2023-03-23T20:24:07.930Z,4.30
2023-03-23T20:26:39.232Z,4.80
2023-03-23T20:29:08.153Z,4.50
2023-03-23T20:31:39.469Z,4.90
2023-03-23T20:34:28.604Z,5.00
2023-03-23T20:36:59.034Z,5.00
2023-03-23T20:39:30.699Z,5.00
2023-03-23T20:42:06.013Z,5.40
2023-03-23T20:44:36.208Z,4.80
2023-03-23T20:47:04.674Z,4.00
2023-03-23T20:49:37.354Z,3.80
2023-03-23T20:52:08.267Z,4.00
2023-03-23T20:54:38.056Z,4.20
2023-03-23T20:57:07.138Z,3.00
2023-03-23T20:59:35.613Z,4.00
2023-03-23T21:02:05.501Z,4.40
2023-03-23T21:04:33.667Z,3.50
2023-03-23T21:07:02.388Z,4.20
2023-03-23T21:09:30.966Z,3.30
2023-03-23T21:11:59.525Z,3.10
2023-03-23T21:14:27.752Z,3.20
2023-03-23T21:16:58.465Z,3.20
2023-03-23T21:19:29.774Z,3.20
2023-03-23T21:21:58.989Z,3.30
2023-03-23T21:24:29.444Z,3.30
2023-03-23T21:27:00.718Z,3.20
2023-03-23T21:29:29.218Z,3.50
2023-03-23T21:34:30.754Z,3.00
2023-03-23T21:36:58.896Z,3.00
2023-03-23T21:39:28.264Z,3.30
2023-03-23T21:41:56.520Z,3.10
2023-03-23T21:44:24.633Z,3.00
2023-03-23T21:46:54.708Z,3.20
2023-03-23T21:49:22.905Z,2.50
2023-03-23T21:51:51.232Z,2.80
2023-03-23T21:54:21.023Z,2.80
2023-03-23T21:56:49.349Z,3.00
2023-03-23T21:59:17.683Z,2.90
2023-03-23T22:01:45.788Z,3.10
2023-03-23T22:04:14.097Z,2.70
2023-03-23T22:06:42.664Z,2.90
2023-03-23T22:09:11.486Z,3.10
2023-03-23T22:11:40.505Z,3.00
2023-03-23T22:14:09.183Z,2.70
2023-03-23T22:16:37.608Z,2.70
2023-03-23T22:19:06.775Z,3.00
2023-03-23T22:21:34.943Z,2.70
2023-03-23T22:24:06.150Z,2.50
2023-03-23T22:26:34.620Z,2.90
2023-03-23T22:29:03.559Z,3.40
2023-03-23T22:31:34.451Z,3.10
2023-03-23T22:34:03.078Z,3.50
2023-03-23T22:36:33.252Z,2.80
2023-03-23T22:39:01.638Z,3.30
2023-03-23T22:41:33.069Z,3.50
2023-03-23T22:44:01.329Z,3.10
2023-03-23T22:46:29.455Z,2.50
2023-03-23T22:48:57.657Z,2.50
2023-03-23T22:51:25.927Z,3.20
2023-03-23T22:53:54.185Z,2.50
2023-03-23T22:56:23.249Z,2.60
2023-03-23T22:58:51.370Z,2.90
2023-03-23T23:01:22.503Z,2.50
2023-03-23T23:03:50.865Z,3.10
2023-03-23T23:06:20.105Z,2.40
2023-03-23T23:08:49.273Z,2.40
2023-03-23T23:11:19.613Z,2.70
2023-03-23T23:13:48.281Z,2.30
2023-03-23T23:16:17.587Z,2.60
2023-03-23T23:18:49.788Z,2.60
2023-03-23T23:21:20.390Z,2.80
2023-03-23T23:23:51.249Z,2.80
2023-03-23T23:26:19.917Z,2.50
2023-03-23T23:28:48.911Z,2.50
2023-03-23T23:31:35.020Z,2.70
2023-03-23T23:34:04.265Z,2.50
2023-03-23T23:36:33.137Z,2.30
2023-03-23T23:39:03.574Z,2.70
2023-03-23T23:41:31.810Z,3.00
2023-03-23T23:44:00.264Z,2.90
2023-03-23T23:46:30.812Z,2.70
2023-03-23T23:49:01.108Z,3.10
2023-03-23T23:51:30.024Z,3.50
2023-03-23T23:54:01.959Z,3.40
2023-03-23T23:56:30.800Z,3.00
2023-03-23T23:58:59.084Z,2.70
